createdAt,value
2018-02-23T00:00:57.233Z,97.60
2018-02-23T00:02:00.536Z,97.60
2018-02-23T00:03:03.760Z,97.80
2018-02-23T00:04:07.749Z,97.80
2018-02-23T00:05:11.749Z,97.60
2018-02-23T00:06:15.771Z,97.70
2018-02-23T00:07:19.009Z,97.60
2018-02-23T00:08:22.245Z,97.60
2018-02-23T00:09:25.475Z,97.60
2018-02-23T00:10:28.709Z,97.60
2018-02-23T00:11:31.938Z,97.40
2018-02-23T00:12:35.173Z,97.50
2018-02-23T00:13:38.434Z,97.30
2018-02-23T00:14:42.426Z,97.00
2018-02-23T00:15:46.446Z,97.10
2018-02-23T00:16:49.686Z,97.00
2018-02-23T00:17:53.009Z,96.90
2018-02-23T00:18:56.234Z,97.00
2018-02-23T00:19:59.501Z,97.10
2018-02-23T00:21:03.515Z,97.40
2018-02-23T00:22:07.509Z,97.50
2018-02-23T00:23:11.532Z,97.40
2018-02-23T00:24:14.765Z,97.40
2018-02-23T00:25:18.907Z,97.30
2018-02-23T00:26:22.128Z,97.30
2018-02-23T00:27:25.430Z,97.30
2018-02-23T00:28:28.665Z,97.30
2018-02-23T00:29:31.885Z,97.40
2018-02-23T00:30:35.115Z,97.50
2018-02-23T00:31:39.109Z,97.50
2018-02-23T00:32:43.221Z,97.40
2018-02-23T00:33:46.448Z,97.40
2018-02-23T00:34:49.672Z,97.20
2018-02-23T00:35:53.680Z,97.10
2018-02-23T00:36:57.671Z,97.00
2018-02-23T00:38:01.686Z,97.20
2018-02-23T00:39:05.664Z,97.40
2018-02-23T00:40:08.919Z,97.40
2018-02-23T00:41:12.137Z,97.40
2018-02-23T00:42:16.129Z,97.40
2018-02-23T00:43:19.376Z,97.30
2018-02-23T00:44:22.616Z,97.40
2018-02-23T00:45:26.619Z,97.50
2018-02-23T00:46:30.623Z,97.60
2018-02-23T00:47:34.614Z,97.60
2018-02-23T00:48:38.619Z,97.60
2018-02-23T00:49:42.614Z,97.60
2018-02-23T00:50:46.626Z,97.70
2018-02-23T00:51:49.844Z,97.70
2018-02-23T00:52:53.108Z,97.70
2018-02-23T00:53:57.128Z,97.80
2018-02-23T00:55:00.368Z,97.80
2018-02-23T00:56:04.388Z,97.60
2018-02-23T00:57:07.632Z,97.60
2018-02-23T00:58:11.626Z,97.80
2018-02-23T00:59:16.359Z,97.70
2018-02-23T01:00:20.359Z,97.70
2018-02-23T01:01:24.150Z,97.60
2018-02-23T01:02:27.404Z,97.80
2018-02-23T01:03:30.623Z,97.70
2018-02-23T01:04:33.903Z,97.80
2018-02-23T01:05:37.124Z,97.80
2018-02-23T01:06:40.354Z,97.70
2018-02-23T01:07:43.738Z,97.70
2018-02-23T01:08:46.944Z,97.60
2018-02-23T01:09:51.014Z,97.60
2018-02-23T01:10:54.243Z,97.60
2018-02-23T01:11:57.509Z,97.50
2018-02-23T01:13:01.499Z,97.60
2018-02-23T01:14:04.746Z,97.60
2018-02-23T01:15:07.969Z,97.60
2018-02-23T01:16:11.285Z,97.70
2018-02-23T01:17:14.683Z,97.70
2018-02-23T01:18:17.906Z,97.70
2018-02-23T01:19:21.124Z,97.70
2018-02-23T01:20:25.117Z,97.80
2018-02-23T01:21:29.109Z,97.80
2018-02-23T01:22:32.358Z,97.80
2018-02-23T01:23:35.611Z,97.90
2018-02-23T01:24:38.842Z,97.80
2018-02-23T01:25:42.075Z,97.70
2018-02-23T01:26:46.061Z,97.80
2018-02-23T01:27:50.054Z,97.80
2018-02-23T01:28:54.037Z,97.80
2018-02-23T01:29:58.044Z,98.00
2018-02-23T01:31:01.269Z,97.80
2018-02-23T01:32:04.496Z,97.90
2018-02-23T01:33:07.733Z,97.90
2018-02-23T01:34:10.958Z,97.90
2018-02-23T01:35:14.237Z,97.70
2018-02-23T01:36:17.477Z,97.80
2018-02-23T01:37:20.701Z,97.70
2018-02-23T01:38:24.018Z,97.90
2018-02-23T01:39:28.087Z,97.90
2018-02-23T01:40:31.272Z,97.90
2018-02-23T01:41:35.188Z,97.80
2018-02-23T01:42:38.838Z,97.80
2018-02-23T01:43:42.097Z,97.90
2018-02-23T01:44:46.081Z,98.00
2018-02-23T01:45:50.100Z,98.00
2018-02-23T01:46:53.330Z,98.00
2018-02-23T01:47:56.571Z,97.90
2018-02-23T01:48:59.802Z,98.00
2018-02-23T01:50:03.086Z,98.00
2018-02-23T01:51:06.265Z,98.00
2018-02-23T01:52:09.501Z,98.00
2018-02-23T01:53:12.734Z,98.10
2018-02-23T01:54:15.998Z,98.10
2018-02-23T01:55:19.221Z,98.10
2018-02-23T01:56:23.301Z,98.10
2018-02-23T01:57:26.518Z,98.10
2018-02-23T01:58:30.510Z,98.00
2018-02-23T01:59:34.531Z,98.10
2018-02-23T02:00:37.753Z,98.10
2018-02-23T02:01:40.996Z,98.10
2018-02-23T02:02:44.218Z,98.00
2018-02-23T02:03:47.462Z,98.10
2018-02-23T02:04:50.749Z,97.90
2018-02-23T02:05:54.065Z,97.80
2018-02-23T02:06:57.282Z,97.90
2018-02-23T02:08:00.507Z,97.90
2018-02-23T02:09:03.795Z,97.90
2018-02-23T02:10:07.020Z,97.90
2018-02-23T02:11:10.341Z,97.90
2018-02-23T02:12:13.561Z,97.90
2018-02-23T02:13:16.786Z,98.00
2018-02-23T02:14:20.786Z,97.90
2018-02-23T02:15:24.784Z,98.00
2018-02-23T02:16:28.009Z,97.90
2018-02-23T02:17:31.264Z,98.30
2018-02-23T02:18:35.249Z,98.10
2018-02-23T02:19:38.470Z,97.90
2018-02-23T02:20:41.698Z,98.00
2018-02-23T02:21:44.916Z,98.00
2018-02-23T02:22:48.150Z,98.00
2018-02-23T02:23:51.375Z,98.00
2018-02-23T02:24:55.360Z,97.90
2018-02-23T02:25:58.589Z,97.90
2018-02-23T02:27:01.821Z,98.10
2018-02-23T02:28:05.087Z,98.10
2018-02-23T02:29:08.312Z,98.00
2018-02-23T02:30:11.557Z,97.80
2018-02-23T02:31:14.783Z,97.70
2018-02-23T02:32:18.009Z,97.70
2018-02-23T02:33:21.303Z,97.80
2018-02-23T02:34:24.512Z,98.30
2018-02-23T02:35:27.726Z,98.20
2018-02-23T02:36:31.052Z,98.20
2018-02-23T02:37:34.274Z,98.30
2018-02-23T02:38:38.276Z,98.20
2018-02-23T02:39:42.288Z,98.10
2018-02-23T02:40:45.525Z,98.10
2018-02-23T02:41:48.773Z,98.20
2018-02-23T02:42:52.013Z,98.20
2018-02-23T02:43:55.229Z,98.10
2018-02-23T02:44:58.460Z,98.10
2018-02-23T02:46:01.697Z,98.20
2018-02-23T02:47:04.930Z,98.20
2018-02-23T02:48:08.186Z,98.20
2018-02-23T02:49:11.414Z,98.00
2018-02-23T02:50:15.423Z,98.10
2018-02-23T02:51:19.426Z,98.20
2018-02-23T02:52:22.645Z,98.20
2018-02-23T02:53:25.891Z,98.10
2018-02-23T02:54:29.882Z,98.10
2018-02-23T02:55:33.895Z,98.20
2018-02-23T02:56:37.900Z,98.30
2018-02-23T02:57:41.876Z,98.40
2018-02-23T02:58:46.168Z,98.40
2018-02-23T02:59:49.385Z,98.30
2018-02-23T03:00:53.384Z,98.30
2018-02-23T03:01:56.614Z,98.30
2018-02-23T03:02:59.845Z,98.20
2018-02-23T03:04:03.843Z,98.20
2018-02-23T03:05:07.862Z,98.30
2018-02-23T03:06:11.109Z,98.30
2018-02-23T03:07:14.379Z,98.20
2018-02-23T03:08:17.598Z,98.20
2018-02-23T03:09:21.595Z,98.30
2018-02-23T03:10:25.670Z,98.10
2018-02-23T03:11:28.943Z,98.10
2018-02-23T03:12:32.145Z,97.80
2018-02-23T03:13:35.467Z,97.80
2018-02-23T03:14:38.722Z,97.80
2018-02-23T03:15:41.963Z,97.80
2018-02-23T03:16:45.245Z,97.80
2018-02-23T03:17:48.470Z,97.80
2018-02-23T03:18:51.744Z,98.00
2018-02-23T03:19:54.979Z,98.00
2018-02-23T03:20:58.982Z,97.80
2018-02-23T03:22:02.978Z,97.60
2018-02-23T03:23:06.972Z,97.60
2018-02-23T03:24:10.209Z,97.60
2018-02-23T03:25:13.439Z,97.60
2018-02-23T03:26:16.708Z,97.70
2018-02-23T03:27:19.934Z,97.80
2018-02-23T03:28:23.173Z,97.70
2018-02-23T03:29:26.422Z,97.70
2018-02-23T03:30:29.675Z,97.60
2018-02-23T03:31:32.928Z,97.70
2018-02-23T03:32:36.176Z,97.80
2018-02-23T03:33:39.407Z,97.80
2018-02-23T03:34:43.401Z,98.30
2018-02-23T03:35:46.719Z,98.00
2018-02-23T03:36:49.956Z,98.10
2018-02-23T03:37:53.198Z,98.00
2018-02-23T03:38:56.440Z,98.00
2018-02-23T03:39:59.701Z,98.00
2018-02-23T03:41:02.915Z,98.00
2018-02-23T03:42:06.913Z,97.80
2018-02-23T03:43:10.954Z,97.70
2018-02-23T03:44:14.189Z,97.70
2018-02-23T03:45:18.186Z,97.80
2018-02-23T03:46:21.449Z,97.80
2018-02-23T03:47:24.677Z,97.90
2018-02-23T03:48:28.671Z,98.00
2018-02-23T03:49:32.658Z,97.80
2018-02-23T03:50:36.653Z,97.70
2018-02-23T03:51:39.887Z,97.70
2018-02-23T03:52:43.121Z,97.60
2018-02-23T03:53:46.488Z,97.70
2018-02-23T03:54:49.705Z,97.90
2018-02-23T03:55:52.943Z,97.60
2018-02-23T03:56:56.200Z,97.50
2018-02-23T03:57:59.524Z,97.80
2018-02-23T03:59:02.739Z,97.90
2018-02-23T04:00:06.740Z,98.30
2018-02-23T04:01:10.743Z,98.10
2018-02-23T04:02:14.770Z,98.00
2018-02-23T04:03:18.102Z,98.00
2018-02-23T04:04:21.385Z,98.00
2018-02-23T04:05:26.121Z,98.20
2018-02-23T04:06:30.152Z,97.90
2018-02-23T04:07:33.397Z,97.90
2018-02-23T04:08:36.633Z,98.00
2018-02-23T04:09:39.897Z,97.90
2018-02-23T04:10:43.112Z,97.90
2018-02-23T04:11:46.346Z,98.00
2018-02-23T04:12:50.367Z,97.80
2018-02-23T04:13:53.622Z,97.80
2018-02-23T04:14:56.858Z,97.80
2018-02-23T04:16:00.116Z,97.90
2018-02-23T04:17:03.356Z,97.90
2018-02-23T04:18:06.600Z,98.00
2018-02-23T04:19:09.826Z,98.00
2018-02-23T04:20:13.862Z,97.90
2018-02-23T04:21:17.106Z,97.90
2018-02-23T04:22:20.361Z,97.90
2018-02-23T04:23:23.662Z,97.90
2018-02-23T04:24:26.857Z,97.80
2018-02-23T04:25:30.097Z,97.90
2018-02-23T04:26:33.340Z,98.00
2018-02-23T04:27:37.329Z,98.00
2018-02-23T04:28:40.563Z,98.00
2018-02-23T04:29:43.788Z,97.90
2018-02-23T04:30:47.007Z,97.80
2018-02-23T04:31:50.248Z,97.80
2018-02-23T04:32:53.475Z,97.80
2018-02-23T04:33:56.910Z,97.80
2018-02-23T04:35:00.155Z,97.80
2018-02-23T04:36:03.453Z,97.80
2018-02-23T04:37:06.687Z,97.80
2018-02-23T04:38:10.682Z,97.70
2018-02-23T04:39:14.694Z,97.80
2018-02-23T04:40:18.711Z,97.90
2018-02-23T04:41:21.940Z,97.90
2018-02-23T04:42:25.169Z,98.20
2018-02-23T04:43:29.173Z,98.00
2018-02-23T04:44:33.317Z,98.00
2018-02-23T04:45:36.565Z,98.40
2018-02-23T04:46:39.915Z,98.10
2018-02-23T04:47:43.140Z,98.20
2018-02-23T04:48:46.369Z,98.30
2018-02-23T04:49:49.592Z,98.40
2018-02-23T04:50:53.590Z,98.30
2018-02-23T04:51:57.621Z,98.30
2018-02-23T04:53:00.928Z,98.30
2018-02-23T04:54:04.115Z,98.20
2018-02-23T04:55:07.354Z,98.10
2018-02-23T04:56:10.613Z,98.10
2018-02-23T04:57:14.600Z,98.20
2018-02-23T04:58:19.460Z,98.20
2018-02-23T04:59:22.690Z,98.20
2018-02-23T05:00:26.721Z,98.20
2018-02-23T05:01:30.713Z,98.30
2018-02-23T05:02:34.699Z,98.40
2018-02-23T05:03:37.943Z,98.40
2018-02-23T05:04:41.194Z,98.40
2018-02-23T05:05:45.213Z,98.30
2018-02-23T05:06:48.444Z,98.40
2018-02-23T05:07:51.686Z,98.30
2018-02-23T05:08:54.929Z,98.20
2018-02-23T05:09:58.149Z,98.20
2018-02-23T05:11:01.390Z,98.20
2018-02-23T05:12:04.637Z,98.10
2018-02-23T05:13:07.873Z,98.10
2018-02-23T05:14:11.876Z,98.30
2018-02-23T05:15:15.882Z,98.40
2018-02-23T05:16:19.121Z,98.30
2018-02-23T05:17:22.367Z,98.40
2018-02-23T05:18:25.599Z,98.20
2018-02-23T05:19:28.814Z,98.20
2018-02-23T05:20:32.094Z,98.20
2018-02-23T05:21:36.124Z,98.20
2018-02-23T05:22:40.089Z,98.20
2018-02-23T05:23:44.078Z,98.30
2018-02-23T05:24:48.077Z,98.30
2018-02-23T05:25:51.322Z,98.30
2018-02-23T05:26:54.546Z,98.50
2018-02-23T05:27:58.545Z,98.30
2018-02-23T05:29:01.804Z,98.20
2018-02-23T05:30:05.050Z,98.20
2018-02-23T05:31:08.276Z,98.10
2018-02-23T05:32:11.536Z,98.00
2018-02-23T05:33:14.793Z,98.00
2018-02-23T05:34:18.023Z,98.10
2018-02-23T05:35:21.252Z,98.20
2018-02-23T05:36:24.513Z,98.50
2018-02-23T05:37:28.521Z,98.40
2018-02-23T05:38:32.509Z,98.50
2018-02-23T05:39:36.510Z,98.50
2018-02-23T05:40:39.742Z,98.50
2018-02-23T05:41:43.050Z,98.50
2018-02-23T05:42:46.262Z,98.30
2018-02-23T05:43:50.283Z,98.40
2018-02-23T05:44:53.540Z,98.40
2018-02-23T05:45:56.767Z,98.30
2018-02-23T05:47:00.015Z,98.30
2018-02-23T05:48:04.020Z,98.50
2018-02-23T05:49:08.055Z,98.70
2018-02-23T05:50:11.325Z,98.70
2018-02-23T05:51:15.301Z,98.90
2018-02-23T05:52:19.722Z,98.80
2018-02-23T05:53:23.704Z,98.70
2018-02-23T05:54:26.963Z,98.70
2018-02-23T05:55:30.209Z,98.60
2018-02-23T05:56:33.448Z,98.60
2018-02-23T05:57:36.693Z,98.70
2018-02-23T05:58:39.913Z,98.60
2018-02-23T05:59:43.162Z,98.70
2018-02-23T06:00:46.386Z,98.70
2018-02-23T06:01:50.411Z,98.50
2018-02-23T06:02:53.652Z,98.50
2018-02-23T06:03:56.938Z,98.40
2018-02-23T06:05:00.217Z,98.30
2018-02-23T06:06:03.481Z,98.30
2018-02-23T06:07:06.768Z,98.20
2018-02-23T06:08:10.030Z,98.20
2018-02-23T06:09:13.270Z,98.30
2018-02-23T06:10:16.502Z,98.30
2018-02-23T06:11:19.746Z,98.20
2018-02-23T06:12:22.977Z,98.30
2018-02-23T06:13:26.215Z,98.30
2018-02-23T06:14:30.208Z,98.20
2018-02-23T06:17:16.851Z,98.20
2018-02-23T06:18:25.724Z,98.30
2018-02-23T06:19:34.606Z,98.20
2018-02-23T06:20:37.827Z,98.10
2018-02-23T06:21:42.551Z,98.30
2018-02-23T06:22:46.615Z,98.20
2018-02-23T06:23:49.830Z,98.20
2018-02-23T06:24:53.873Z,98.00
2018-02-23T06:25:57.109Z,98.00
2018-02-23T06:27:00.429Z,98.10
2018-02-23T06:28:03.682Z,98.10
2018-02-23T06:29:07.686Z,98.00
2018-02-23T06:30:11.679Z,97.90
2018-02-23T06:31:14.934Z,97.90
2018-02-23T06:32:18.222Z,98.00
2018-02-23T06:33:21.509Z,98.10
2018-02-23T06:34:24.762Z,98.10
2018-02-23T06:35:28.198Z,98.40
2018-02-23T06:36:31.526Z,97.80
2018-02-23T06:37:34.748Z,97.60
2018-02-23T06:38:37.977Z,97.70
2018-02-23T06:39:41.250Z,97.60
2018-02-23T06:40:45.404Z,97.50
2018-02-23T06:41:48.625Z,97.50
2018-02-23T06:42:52.695Z,97.80
2018-02-23T06:43:55.919Z,97.80
2018-02-23T06:44:59.935Z,97.90
2018-02-23T06:46:03.973Z,97.80
2018-02-23T06:47:12.251Z,97.80
2018-02-23T06:48:15.484Z,98.00
2018-02-23T06:49:18.736Z,98.10
2018-02-23T06:50:22.008Z,98.10
2018-02-23T06:51:25.241Z,98.10
2018-02-23T06:52:29.099Z,98.00
2018-02-23T06:53:32.326Z,97.90
2018-02-23T06:54:36.336Z,98.00
2018-02-23T06:55:40.347Z,97.90
2018-02-23T06:56:43.589Z,97.90
2018-02-23T06:57:46.930Z,98.00
2018-02-23T06:58:50.163Z,97.90
2018-02-23T06:59:53.501Z,97.80
2018-02-23T07:00:56.746Z,97.70
2018-02-23T07:02:00.754Z,97.90
2018-02-23T07:03:04.836Z,97.50
2018-02-23T07:04:08.080Z,97.50
2018-02-23T07:05:11.304Z,97.30
2018-02-23T07:06:14.542Z,97.20
2018-02-23T07:07:17.821Z,97.40
2018-02-23T07:08:21.074Z,97.50
2018-02-23T07:09:25.078Z,97.50
2018-02-23T07:10:29.078Z,97.60
2018-02-23T07:11:33.074Z,97.60
2018-02-23T07:12:37.083Z,97.40
2018-02-23T07:13:41.090Z,97.30
2018-02-23T07:14:44.320Z,97.30
2018-02-23T07:15:47.614Z,97.30
2018-02-23T07:16:50.875Z,97.40
2018-02-23T07:17:54.132Z,97.50
2018-02-23T07:18:58.114Z,97.60
2018-02-23T07:20:02.178Z,97.60
2018-02-23T07:21:05.377Z,97.50
2018-02-23T07:22:08.638Z,97.50
2018-02-23T07:23:11.904Z,97.50
2018-02-23T07:24:15.121Z,97.30
2018-02-23T07:25:18.381Z,97.30
2018-02-23T07:26:21.612Z,97.30
2018-02-23T07:27:25.601Z,97.40
2018-02-23T07:28:29.593Z,97.30
2018-02-23T07:29:32.821Z,97.20
2018-02-23T07:30:36.060Z,97.30
2018-02-23T07:31:39.296Z,97.20
2018-02-23T07:32:42.525Z,97.30
2018-02-23T07:33:45.760Z,97.20
2018-02-23T07:34:48.979Z,97.20
2018-02-23T07:35:53.710Z,97.40
2018-02-23T07:36:56.945Z,97.40
2018-02-23T07:38:00.476Z,98.30
2018-02-23T07:39:03.760Z,98.10
2018-02-23T07:40:07.021Z,98.50
2018-02-23T07:41:10.254Z,98.30
2018-02-23T07:42:14.267Z,97.60
2018-02-23T07:43:18.285Z,97.30
2018-02-23T07:44:21.512Z,97.30
2018-02-23T07:45:24.742Z,97.30
2018-02-23T07:46:28.886Z,97.30
2018-02-23T07:47:32.086Z,97.30
2018-02-23T07:48:35.322Z,97.50
2018-02-23T07:49:38.549Z,97.30
2018-02-23T07:50:41.778Z,97.60
2018-02-23T07:51:45.018Z,97.50
2018-02-23T07:52:48.343Z,97.40
2018-02-23T07:53:51.586Z,97.60
2018-02-23T07:54:54.836Z,97.30
2018-02-23T07:55:58.049Z,97.10
2018-02-23T07:57:01.283Z,97.20
2018-02-23T07:58:04.508Z,97.30
2018-02-23T07:59:07.758Z,97.50
2018-02-23T08:00:11.229Z,97.60
2018-02-23T08:01:14.468Z,97.60
2018-02-23T08:02:17.734Z,97.50
2018-02-23T08:03:21.014Z,97.40
2018-02-23T08:04:24.230Z,97.30
2018-02-23T08:05:28.302Z,97.50
2018-02-23T08:06:31.560Z,97.40
2018-02-23T08:07:34.794Z,97.40
2018-02-23T08:08:38.032Z,97.30
2018-02-23T08:09:41.260Z,97.20
2018-02-23T08:10:44.490Z,97.00
2018-02-23T08:11:47.710Z,97.20
2018-02-23T08:12:50.960Z,97.50
2018-02-23T08:13:54.190Z,97.40
2018-02-23T08:14:57.429Z,97.20
2018-02-23T08:16:00.654Z,97.20
2018-02-23T08:17:03.903Z,97.20
2018-02-23T08:18:07.145Z,97.40
2018-02-23T08:19:11.157Z,97.50
2018-02-23T08:20:14.392Z,97.50
2018-02-23T08:21:18.512Z,97.60
2018-02-23T08:22:22.504Z,97.60
2018-02-23T08:23:25.742Z,97.60
2018-02-23T08:24:28.970Z,97.60
2018-02-23T08:25:32.205Z,97.30
2018-02-23T08:26:35.426Z,97.30
2018-02-23T08:27:38.761Z,97.40
2018-02-23T08:28:42.006Z,97.40
2018-02-23T08:29:45.273Z,97.40
2018-02-23T08:30:48.488Z,97.40
2018-02-23T08:31:52.807Z,97.30
2018-02-23T08:32:56.772Z,97.70
2018-02-23T08:34:00.068Z,97.40
2018-02-23T08:35:03.281Z,97.50
2018-02-23T08:36:06.512Z,97.30
2018-02-23T08:37:09.746Z,97.00
2018-02-23T08:38:13.022Z,96.80
2018-02-23T08:39:16.239Z,96.90
2018-02-23T08:40:19.472Z,97.10
2018-02-23T08:41:23.506Z,97.30
2018-02-23T08:42:26.728Z,97.30
2018-02-23T08:43:30.747Z,97.30
2018-02-23T08:44:34.025Z,97.40
2018-02-23T08:45:37.266Z,97.20
2018-02-23T08:46:40.509Z,97.10
2018-02-23T08:47:43.829Z,97.10
2018-02-23T08:48:47.044Z,96.90
2018-02-23T08:49:50.298Z,96.70
2018-02-23T08:50:53.527Z,96.70
2018-02-23T08:51:56.768Z,97.00
2018-02-23T08:53:00.041Z,96.90
2018-02-23T08:54:03.268Z,96.90
2018-02-23T08:55:07.321Z,96.50
2018-02-23T08:56:10.550Z,96.50
2018-02-23T08:57:13.776Z,96.40
2018-02-23T08:58:17.022Z,96.40
2018-02-23T08:59:20.261Z,96.50
2018-02-23T09:00:27.428Z,96.70
2018-02-23T09:01:30.719Z,96.70
2018-02-23T09:02:33.981Z,96.80
2018-02-23T09:03:37.229Z,96.90
2018-02-23T09:04:40.450Z,96.50
2018-02-23T09:05:43.702Z,96.50
2018-02-23T09:06:46.957Z,96.50
2018-02-23T09:07:50.207Z,96.50
2018-02-23T09:08:53.500Z,96.40
2018-02-23T09:09:57.484Z,96.40
2018-02-23T09:11:00.711Z,96.40
2018-02-23T09:12:03.948Z,96.50
2018-02-23T09:13:07.176Z,96.50
2018-02-23T09:14:10.410Z,96.80
2018-02-23T09:15:13.631Z,96.60
2018-02-23T09:16:16.864Z,96.60
2018-02-23T09:17:20.864Z,96.70
2018-02-23T09:18:24.876Z,96.80
2018-02-23T09:19:28.218Z,96.70
2018-02-23T09:20:31.430Z,96.80
2018-02-23T09:21:35.434Z,96.90
2018-02-23T09:22:39.433Z,96.90
2018-02-23T09:23:43.468Z,96.90
2018-02-23T09:24:46.713Z,96.80
2018-02-23T09:25:49.922Z,96.90
2018-02-23T09:26:53.206Z,96.90
2018-02-23T09:27:56.437Z,96.90
2018-02-23T09:28:59.684Z,96.80
2018-02-23T09:30:02.959Z,96.70
2018-02-23T09:31:06.978Z,96.70
2018-02-23T09:32:22.133Z,96.70
2018-02-23T09:33:47.945Z,96.80
2018-02-23T09:34:51.185Z,96.90
2018-02-23T09:35:55.191Z,97.20
2018-02-23T09:36:59.186Z,97.10
2018-02-23T09:38:03.183Z,97.10
2018-02-23T09:39:06.407Z,97.10
2018-02-23T09:40:09.655Z,97.10
2018-02-23T09:41:13.667Z,97.20
2018-02-23T09:42:17.658Z,96.80
2018-02-23T09:43:21.679Z,96.80
2018-02-23T09:44:25.010Z,96.80
2018-02-23T09:45:28.226Z,96.80
2018-02-23T09:46:32.228Z,96.70
2018-02-23T09:47:36.237Z,96.80
2018-02-23T09:48:40.243Z,96.80
2018-02-23T09:49:44.236Z,96.80
2018-02-23T09:50:48.241Z,96.70
2018-02-23T09:51:51.480Z,96.70
2018-02-23T09:52:54.712Z,96.70
2018-02-23T09:53:57.950Z,96.50
2018-02-23T09:55:01.193Z,96.50
2018-02-23T09:56:04.445Z,96.30
2018-02-23T09:57:08.468Z,96.10
2018-02-23T09:58:11.710Z,96.10
2018-02-23T09:59:14.963Z,96.10
2018-02-23T10:00:18.200Z,96.20
2018-02-23T10:01:22.239Z,96.20
2018-02-23T10:02:26.191Z,96.20
2018-02-23T10:03:29.459Z,96.70
2018-02-23T10:04:32.751Z,96.40
2018-02-23T10:05:36.011Z,96.50
2018-02-23T10:06:39.229Z,96.50
2018-02-23T10:07:43.234Z,95.90
2018-02-23T10:08:47.225Z,95.90
2018-02-23T10:09:51.233Z,96.10
2018-02-23T10:10:55.305Z,96.10
2018-02-23T10:11:58.473Z,96.00
2018-02-23T10:13:01.707Z,96.20
2018-02-23T10:14:05.831Z,96.20
2018-02-23T10:15:09.078Z,96.20
2018-02-23T10:16:13.085Z,96.30
2018-02-23T10:17:17.077Z,96.30
2018-02-23T10:18:20.322Z,96.20
2018-02-23T10:19:23.556Z,96.30
2018-02-23T10:20:27.585Z,96.30
2018-02-23T10:21:30.810Z,96.30
2018-02-23T10:22:34.042Z,96.70
2018-02-23T10:23:37.333Z,97.10
2018-02-23T10:24:40.513Z,96.70
2018-02-23T10:25:43.793Z,96.50
2018-02-23T10:26:47.042Z,96.40
2018-02-23T10:27:51.035Z,96.40
2018-02-23T10:28:54.276Z,96.50
2018-02-23T10:29:57.506Z,95.90
2018-02-23T10:31:00.754Z,95.90
2018-02-23T10:32:03.983Z,95.80
2018-02-23T10:33:08.017Z,96.10
2018-02-23T10:34:11.288Z,96.00
2018-02-23T10:35:15.066Z,96.20
2018-02-23T10:36:19.857Z,96.10
2018-02-23T10:37:23.101Z,96.10
2018-02-23T10:38:26.325Z,96.10
2018-02-23T10:39:29.585Z,95.90
2018-02-23T10:40:32.833Z,96.00
2018-02-23T10:41:36.060Z,96.10
2018-02-23T10:42:39.305Z,96.10
2018-02-23T10:43:42.541Z,96.00
2018-02-23T10:44:45.765Z,96.10
2018-02-23T10:45:48.993Z,96.10
2018-02-23T10:46:52.272Z,96.00
2018-02-23T10:47:55.645Z,96.30
2018-02-23T10:48:58.877Z,96.00
2018-02-23T10:50:02.866Z,96.00
2018-02-23T10:51:06.097Z,96.00
2018-02-23T10:52:09.357Z,95.90
2018-02-23T10:53:13.388Z,95.90
2018-02-23T10:54:16.656Z,95.90
2018-02-23T10:55:19.861Z,96.10
2018-02-23T10:56:23.127Z,96.10
2018-02-23T10:57:26.370Z,95.90
2018-02-23T10:58:30.378Z,95.90
2018-02-23T10:59:34.382Z,95.80
2018-02-23T11:00:38.389Z,95.80
2018-02-23T11:01:42.373Z,96.00
2018-02-23T11:02:45.638Z,95.90
2018-02-23T11:03:48.873Z,96.10
2018-02-23T11:04:52.138Z,95.90
2018-02-23T11:05:56.130Z,95.80
2018-02-23T11:07:00.148Z,95.70
2018-02-23T11:08:04.137Z,95.90
2018-02-23T11:09:08.153Z,96.00
2018-02-23T11:10:11.451Z,96.00
2018-02-23T11:11:14.702Z,96.10
2018-02-23T11:12:18.747Z,96.40
2018-02-23T11:13:21.968Z,96.10
2018-02-23T11:14:25.222Z,96.00
2018-02-23T11:15:28.469Z,96.30
2018-02-23T11:16:31.727Z,96.10
2018-02-23T11:17:34.940Z,96.10
2018-02-23T11:18:38.187Z,96.10
2018-02-23T11:19:41.403Z,96.00
2018-02-23T11:20:44.725Z,96.00
2018-02-23T11:21:47.958Z,96.10
2018-02-23T11:22:51.214Z,96.20
2018-02-23T11:23:54.474Z,96.30
2018-02-23T11:24:57.735Z,96.30
2018-02-23T11:26:01.036Z,96.30
2018-02-23T11:27:04.271Z,96.40
2018-02-23T11:28:08.423Z,96.40
2018-02-23T11:29:11.857Z,96.40
2018-02-23T11:30:16.433Z,96.30
2018-02-23T11:31:20.441Z,96.50
2018-02-23T11:32:23.668Z,96.40
2018-02-23T11:33:27.876Z,96.40
2018-02-23T11:34:31.108Z,96.10
2018-02-23T11:35:34.340Z,96.10
2018-02-23T11:36:39.173Z,96.30
2018-02-23T11:37:42.394Z,96.30
2018-02-23T11:38:45.640Z,96.20
2018-02-23T11:39:48.850Z,96.00
2018-02-23T11:40:52.089Z,96.10
2018-02-23T11:41:55.361Z,96.20
2018-02-23T11:42:58.610Z,96.20
2018-02-23T11:44:01.885Z,96.20
2018-02-23T11:45:05.110Z,96.30
2018-02-23T11:46:09.132Z,96.10
2018-02-23T11:47:12.408Z,96.10
2018-02-23T11:48:15.699Z,96.10
2018-02-23T11:49:18.935Z,96.00
2018-02-23T11:50:22.195Z,96.00
2018-02-23T11:51:25.484Z,96.20
2018-02-23T11:52:28.768Z,96.00
2018-02-23T11:53:31.967Z,96.00
2018-02-23T11:54:35.218Z,95.90
2018-02-23T11:55:38.529Z,96.30
2018-02-23T11:56:41.744Z,96.00
2018-02-23T11:57:44.982Z,96.00
2018-02-23T11:58:48.252Z,96.00
2018-02-23T11:59:51.491Z,96.00
2018-02-23T12:00:55.492Z,96.00
2018-02-23T12:01:59.484Z,95.90
2018-02-23T12:03:03.492Z,96.00
2018-02-23T12:04:08.081Z,96.00
2018-02-23T12:05:11.309Z,96.00
2018-02-23T12:06:14.620Z,96.10
2018-02-23T12:07:17.952Z,96.00
2018-02-23T12:08:21.972Z,96.00
2018-02-23T12:09:25.213Z,96.00
2018-02-23T12:10:28.483Z,96.00
2018-02-23T12:11:31.679Z,95.90
2018-02-23T12:12:34.923Z,96.00
2018-02-23T12:13:38.173Z,95.90
2018-02-23T12:14:42.168Z,96.10
2018-02-23T12:15:46.171Z,96.30
2018-02-23T12:16:50.189Z,96.10
2018-02-23T12:17:53.432Z,96.00
2018-02-23T12:18:56.636Z,96.00
2018-02-23T12:20:00.342Z,95.90
2018-02-23T12:21:03.586Z,95.90
2018-02-23T12:22:07.983Z,96.10
2018-02-23T12:23:11.234Z,95.90
2018-02-23T12:24:14.465Z,96.00
2018-02-23T12:25:17.734Z,96.10
2018-02-23T12:26:20.959Z,96.30
2018-02-23T12:27:24.948Z,96.30
2018-02-23T12:28:28.965Z,96.30
2018-02-23T12:29:32.206Z,96.30
2018-02-23T12:30:35.494Z,96.30
2018-02-23T12:31:38.745Z,96.40
2018-02-23T12:32:42.001Z,96.30
2018-02-23T12:33:45.339Z,96.10
2018-02-23T12:34:48.549Z,96.00
2018-02-23T12:35:51.798Z,95.90
2018-02-23T12:36:55.026Z,96.10
2018-02-23T12:37:58.258Z,96.10
2018-02-23T12:39:02.262Z,96.10
2018-02-23T12:40:06.245Z,96.00
2018-02-23T12:41:10.255Z,95.90
2018-02-23T12:42:14.243Z,96.00
2018-02-23T12:43:18.290Z,96.00
2018-02-23T12:44:21.536Z,96.00
2018-02-23T12:45:25.552Z,95.90
2018-02-23T12:46:28.779Z,95.90
2018-02-23T12:47:32.010Z,95.90
2018-02-23T12:48:37.170Z,96.00
2018-02-23T12:49:40.437Z,96.00
2018-02-23T12:50:43.673Z,96.00
2018-02-23T12:51:46.904Z,95.90
2018-02-23T12:52:50.134Z,95.80
2018-02-23T12:53:53.377Z,95.70
2018-02-23T12:54:56.606Z,95.60
2018-02-23T12:55:59.840Z,95.90
2018-02-23T12:57:03.076Z,95.80
2018-02-23T12:58:06.317Z,95.80
2018-02-23T12:59:10.461Z,96.00
2018-02-23T13:00:13.740Z,95.90
2018-02-23T13:01:16.978Z,95.90
2018-02-23T13:02:20.996Z,95.80
2018-02-23T13:03:24.989Z,95.80
2018-02-23T13:04:28.994Z,95.80
2018-02-23T13:05:33.018Z,95.70
2018-02-23T13:06:36.275Z,95.70
2018-02-23T13:07:40.265Z,95.50
2018-02-23T13:08:44.330Z,95.50
2018-02-23T13:09:47.584Z,95.30
2018-02-23T13:12:00.397Z,95.40
2018-02-23T13:13:03.675Z,95.50
2018-02-23T13:14:07.650Z,95.80
2018-02-23T13:15:16.502Z,95.80
2018-02-23T13:16:29.455Z,98.40
2018-02-23T13:17:32.687Z,97.40
2018-02-23T13:18:36.033Z,97.00
2018-02-23T13:19:39.302Z,96.30
2018-02-23T13:20:42.531Z,96.60
2018-02-23T13:21:45.757Z,96.50
2018-02-23T13:22:48.998Z,96.30
2018-02-23T13:23:52.221Z,96.20
2018-02-23T13:24:56.219Z,96.20
2018-02-23T13:25:59.464Z,96.20
2018-02-23T13:27:08.511Z,96.30
2018-02-23T13:28:18.134Z,96.40
2018-02-23T13:29:21.363Z,96.30
2018-02-23T13:30:24.602Z,96.20
2018-02-23T13:31:28.617Z,96.10
2018-02-23T13:32:32.599Z,96.00
2018-02-23T13:33:35.818Z,96.00
2018-02-23T13:34:39.048Z,96.20
2018-02-23T13:35:42.277Z,96.10
2018-02-23T13:36:45.499Z,96.00
2018-02-23T13:37:48.738Z,95.80
2018-02-23T13:38:51.986Z,96.00
2018-02-23T13:39:55.213Z,96.20
2018-02-23T13:41:04.120Z,96.20
2018-02-23T13:42:07.405Z,96.20